createdAt,value
2022-12-12T00:00:06.751Z,52.58
2022-12-12T00:01:16.684Z,53.33
2022-12-12T00:02:19.447Z,53.11
2022-12-12T00:03:21.430Z,53.32
2022-12-12T00:04:25.787Z,53.39
2022-12-12T00:05:27.523Z,52.51
2022-12-12T00:06:30.435Z,52.55
2022-12-12T00:07:32.155Z,53.15
2022-12-12T00:08:34.803Z,53.32
2022-12-12T00:09:36.492Z,53.24
2022-12-12T00:10:39.200Z,53.14
2022-12-12T00:11:40.993Z,53.42
2022-12-12T00:12:43.644Z,52.69
2022-12-12T00:13:45.304Z,53.07
2022-12-12T00:14:48.016Z,52.52
2022-12-12T00:15:49.812Z,52.65
2022-12-12T00:16:52.655Z,52.98
2022-12-12T00:17:54.479Z,53.17
2022-12-12T00:18:57.170Z,53.47
2022-12-12T00:20:00.270Z,52.89
2022-12-12T00:21:02.958Z,53.19
2022-12-12T00:22:04.657Z,52.41
2022-12-12T00:23:07.406Z,53.41
2022-12-12T00:24:09.246Z,52.95
2022-12-12T00:25:12.488Z,53.35
2022-12-12T00:26:16.868Z,52.59
2022-12-12T00:27:19.546Z,53.08
2022-12-12T00:28:21.327Z,53.23
2022-12-12T00:29:24.015Z,52.75
2022-12-12T00:30:25.773Z,52.70
2022-12-12T00:31:29.267Z,52.31
2022-12-12T00:32:31.151Z,53.21
2022-12-12T00:33:33.791Z,52.63
2022-12-12T00:34:35.458Z,52.90
2022-12-12T00:35:40.747Z,53.19
2022-12-12T00:36:42.717Z,53.63
2022-12-12T00:37:45.796Z,53.27
2022-12-12T00:38:48.156Z,53.06
2022-12-12T00:39:50.862Z,53.09
2022-12-12T00:40:56.399Z,53.06
2022-12-12T00:41:59.114Z,53.64
2022-12-12T00:43:00.844Z,53.24
2022-12-12T00:44:03.541Z,53.26
2022-12-12T00:45:06.075Z,53.01
2022-12-12T00:46:09.130Z,53.44
2022-12-12T00:47:10.847Z,53.95
2022-12-12T00:48:13.546Z,53.75
2022-12-12T00:49:16.420Z,53.28
2022-12-12T00:50:18.291Z,53.36
2022-12-12T00:51:23.460Z,53.79
2022-12-12T00:52:25.319Z,53.16
2022-12-12T00:53:28.047Z,53.21
2022-12-12T00:54:29.734Z,53.73
2022-12-12T00:55:32.496Z,54.03
2022-12-12T00:56:35.167Z,53.64
2022-12-12T00:57:36.836Z,54.05
2022-12-12T00:58:39.467Z,53.91
2022-12-12T00:59:41.212Z,53.17
2022-12-12T01:00:43.910Z,54.21
2022-12-12T01:01:46.017Z,53.92
2022-12-12T01:02:49.094Z,53.86
2022-12-12T01:03:51.192Z,53.94
2022-12-12T01:04:53.909Z,54.05
2022-12-12T01:05:55.585Z,54.32
2022-12-12T01:06:59.684Z,53.76
2022-12-12T01:08:01.409Z,53.72
2022-12-12T01:09:04.552Z,54.64
2022-12-12T01:10:07.797Z,53.98
2022-12-12T01:11:11.847Z,54.66
2022-12-12T01:12:13.487Z,54.36
2022-12-12T01:13:16.179Z,54.48
2022-12-12T01:14:17.861Z,54.63
2022-12-12T01:15:20.614Z,53.76
2022-12-12T01:16:23.662Z,53.93
2022-12-12T01:17:26.740Z,54.42
2022-12-12T01:18:29.085Z,54.19
2022-12-12T01:19:31.762Z,54.22
2022-12-12T01:20:33.526Z,53.54
2022-12-12T01:21:37.759Z,53.89
2022-12-12T01:22:40.864Z,54.19
2022-12-12T01:23:43.783Z,54.23
2022-12-12T01:24:45.463Z,53.86
2022-12-12T01:25:48.256Z,53.78
2022-12-12T01:26:51.186Z,53.88
2022-12-12T01:27:52.853Z,53.62
2022-12-12T01:28:56.532Z,53.50
2022-12-12T01:30:01.745Z,53.64
2022-12-12T01:31:04.755Z,54.21
2022-12-12T01:32:06.500Z,54.14
2022-12-12T01:33:09.190Z,53.66
2022-12-12T01:34:12.241Z,54.01
2022-12-12T01:35:14.349Z,53.58
2022-12-12T01:36:19.415Z,53.76
2022-12-12T01:37:21.208Z,53.75
2022-12-12T01:38:25.640Z,53.61
2022-12-12T01:39:28.423Z,54.11
2022-12-12T01:40:30.853Z,53.73
2022-12-12T01:41:33.891Z,53.61
2022-12-12T01:42:35.754Z,54.09
2022-12-12T01:43:38.452Z,54.12
2022-12-12T01:44:43.311Z,54.21
2022-12-12T01:46:35.343Z,53.85
2022-12-12T01:47:37.106Z,53.46
2022-12-12T01:48:42.914Z,53.89
2022-12-12T01:49:48.019Z,53.29
2022-12-12T01:50:50.236Z,53.83
2022-12-12T01:51:56.777Z,53.44
2022-12-12T01:52:58.443Z,53.15
2022-12-12T01:54:05.790Z,53.86
2022-12-12T01:55:12.738Z,53.74
2022-12-12T01:56:15.686Z,53.81
2022-12-12T01:57:23.016Z,53.06
2022-12-12T01:58:25.221Z,53.65
2022-12-12T01:59:28.578Z,52.86
2022-12-12T02:00:30.429Z,53.64
2022-12-12T02:01:33.458Z,53.47
2022-12-12T02:02:36.516Z,53.46
2022-12-12T02:03:39.013Z,53.63
2022-12-12T02:04:42.436Z,52.99
2022-12-12T02:05:48.149Z,53.60
2022-12-12T02:06:52.245Z,53.32
2022-12-12T02:07:54.301Z,52.48
2022-12-12T02:08:59.573Z,52.47
2022-12-12T02:10:02.686Z,53.27
2022-12-12T02:11:05.643Z,53.02
2022-12-12T02:12:08.457Z,52.44
2022-12-12T02:13:13.630Z,53.26
2022-12-12T02:14:19.004Z,52.97
2022-12-12T02:15:20.962Z,53.20
2022-12-12T02:16:33.302Z,52.97
2022-12-12T02:17:46.994Z,53.17
2022-12-12T02:18:54.595Z,52.90
2022-12-12T02:20:24.704Z,52.25
2022-12-12T02:21:31.008Z,52.19
2022-12-12T02:22:47.864Z,52.88
2022-12-12T02:24:12.104Z,53.08
2022-12-12T02:25:51.279Z,52.55
2022-12-12T02:27:17.438Z,53.17
2022-12-12T02:28:33.604Z,52.54
2022-12-12T02:30:04.141Z,53.18
2022-12-12T02:31:13.241Z,52.76
2022-12-12T02:32:24.112Z,53.20
2022-12-12T02:33:36.665Z,52.16
2022-12-12T02:34:46.758Z,52.48
2022-12-12T02:35:57.945Z,52.21
2022-12-12T02:37:07.912Z,52.96
2022-12-12T02:38:16.036Z,52.34
2022-12-12T02:39:24.506Z,52.55
2022-12-12T02:40:33.833Z,52.92
2022-12-12T02:41:38.938Z,52.30
2022-12-12T02:42:44.695Z,52.51
2022-12-12T02:43:57.947Z,53.25
2022-12-12T02:45:04.708Z,53.26
2022-12-12T02:46:11.569Z,52.51
2022-12-12T02:47:18.560Z,52.65
2022-12-12T02:48:24.935Z,53.00
2022-12-12T02:49:30.427Z,52.68
2022-12-12T02:50:33.232Z,53.51
2022-12-12T02:51:36.799Z,53.22
2022-12-12T02:52:39.171Z,53.55
2022-12-12T02:53:41.801Z,53.02
2022-12-12T02:54:43.555Z,53.53
2022-12-12T02:55:46.449Z,53.60
2022-12-12T02:56:53.230Z,53.14
2022-12-12T02:57:56.347Z,53.40
2022-12-12T02:58:58.320Z,52.88
2022-12-12T03:00:03.256Z,52.98
2022-12-12T03:01:17.447Z,53.12
2022-12-12T03:02:51.102Z,53.37
2022-12-12T03:04:14.951Z,53.43
2022-12-12T03:05:47.838Z,53.47
2022-12-12T03:07:16.409Z,53.34
2022-12-12T03:08:31.326Z,53.74
2022-12-12T03:09:45.060Z,53.24
2022-12-12T03:10:53.363Z,53.58
2022-12-12T03:12:04.756Z,53.50
2022-12-12T03:13:11.569Z,53.67
2022-12-12T03:14:21.231Z,54.40
2022-12-12T03:15:27.013Z,53.38
2022-12-12T03:16:32.755Z,54.03
2022-12-12T03:17:40.664Z,54.12
2022-12-12T03:18:50.157Z,54.02
2022-12-12T03:19:59.585Z,53.64
2022-12-12T03:21:04.479Z,53.84
2022-12-12T03:22:11.678Z,54.09
2022-12-12T03:23:16.038Z,53.75
2022-12-12T03:24:22.352Z,54.07
2022-12-12T03:25:29.253Z,54.34
2022-12-12T03:26:34.194Z,54.34
2022-12-12T03:27:39.519Z,53.85
2022-12-12T03:28:45.679Z,54.13
2022-12-12T03:29:52.138Z,53.91
2022-12-12T03:30:56.662Z,54.35
2022-12-12T03:32:04.771Z,54.02
2022-12-12T03:33:12.835Z,54.06
2022-12-12T03:34:17.608Z,54.21
2022-12-12T03:35:22.320Z,54.41
2022-12-12T03:36:26.917Z,54.17
2022-12-12T03:37:33.252Z,54.29
2022-12-12T03:38:38.648Z,54.55
2022-12-12T03:39:44.630Z,53.94
2022-12-12T03:40:49.160Z,54.04
2022-12-12T03:41:54.913Z,54.14
2022-12-12T03:43:01.980Z,54.58
2022-12-12T03:44:07.789Z,54.82
2022-12-12T03:45:14.641Z,54.44
2022-12-12T03:46:19.089Z,53.93
2022-12-12T03:47:28.597Z,54.20
2022-12-12T03:48:31.934Z,54.20
2022-12-12T03:49:39.640Z,54.84
2022-12-12T03:50:45.922Z,54.05
2022-12-12T03:51:51.241Z,54.36
2022-12-12T03:52:58.569Z,54.04
2022-12-12T03:54:05.606Z,54.46
2022-12-12T03:55:11.881Z,54.30
2022-12-12T03:56:20.067Z,54.35
2022-12-12T03:57:26.241Z,54.48
2022-12-12T03:58:30.567Z,54.13
2022-12-12T03:59:36.038Z,54.06
2022-12-12T04:00:39.756Z,54.70
2022-12-12T04:01:47.461Z,53.88
2022-12-12T04:02:54.903Z,54.56
2022-12-12T04:04:06.336Z,54.62
2022-12-12T04:05:15.908Z,54.12
2022-12-12T04:06:27.440Z,54.89
2022-12-12T04:07:33.343Z,54.21
2022-12-12T04:08:35.344Z,54.17
2022-12-12T04:09:55.663Z,54.00
2022-12-12T04:11:22.658Z,54.46
2022-12-12T04:12:50.083Z,54.68
2022-12-12T04:14:01.864Z,54.25
2022-12-12T04:15:17.703Z,54.46
2022-12-12T04:16:24.842Z,54.33
2022-12-12T04:17:32.504Z,54.48
2022-12-12T04:18:41.303Z,54.74
2022-12-12T04:20:05.126Z,54.39
2022-12-12T04:21:37.659Z,54.87
2022-12-12T04:23:02.829Z,54.92
2022-12-12T04:24:12.543Z,54.92
2022-12-12T04:25:26.146Z,54.77
2022-12-12T04:26:42.303Z,54.93
2022-12-12T04:27:47.074Z,54.53
2022-12-12T04:28:56.284Z,54.81
2022-12-12T04:30:03.545Z,54.23
2022-12-12T04:31:06.175Z,55.19
2022-12-12T04:32:14.861Z,54.99
2022-12-12T04:33:17.995Z,54.53
2022-12-12T04:34:25.329Z,54.74
2022-12-12T04:35:30.378Z,54.59
2022-12-12T04:36:33.625Z,55.14
2022-12-12T04:37:37.727Z,54.70
2022-12-12T04:38:41.284Z,54.60
2022-12-12T04:39:44.244Z,54.66
2022-12-12T04:40:54.132Z,54.52
2022-12-12T04:41:56.151Z,54.72
2022-12-12T04:43:01.828Z,54.31
2022-12-12T04:44:05.290Z,54.58
2022-12-12T04:45:11.603Z,54.86
2022-12-12T04:46:16.529Z,54.26
2022-12-12T04:47:20.263Z,53.89
2022-12-12T04:48:26.571Z,54.81
2022-12-12T04:49:31.754Z,54.14
2022-12-12T04:50:34.599Z,54.97
2022-12-12T04:51:42.641Z,54.62
2022-12-12T04:52:45.327Z,54.73
2022-12-12T04:53:51.386Z,54.15
2022-12-12T04:54:59.271Z,54.03
2022-12-12T04:56:06.665Z,54.41
2022-12-12T04:57:11.458Z,54.02
2022-12-12T04:58:13.666Z,54.40
2022-12-12T04:59:16.383Z,54.02
2022-12-12T05:00:19.946Z,54.22
2022-12-12T05:01:25.355Z,53.70
2022-12-12T05:02:36.900Z,53.79
2022-12-12T05:03:42.142Z,54.29
2022-12-12T05:04:51.298Z,54.52
2022-12-12T05:05:55.224Z,54.47
2022-12-12T05:07:01.902Z,53.63
2022-12-12T05:08:08.745Z,54.21
2022-12-12T05:09:11.769Z,54.43
2022-12-12T05:10:16.976Z,53.88
2022-12-12T05:11:19.083Z,54.35
2022-12-12T05:12:22.091Z,53.41
2022-12-12T05:13:28.390Z,54.18
2022-12-12T05:14:31.346Z,54.25
2022-12-12T05:15:34.088Z,53.54
2022-12-12T05:16:38.653Z,54.18
2022-12-12T05:17:44.757Z,53.84
2022-12-12T05:18:46.482Z,54.10
2022-12-12T05:19:50.610Z,53.85
2022-12-12T05:20:52.566Z,54.08
2022-12-12T05:21:55.397Z,53.74
2022-12-12T05:22:57.107Z,54.33
2022-12-12T05:23:59.763Z,54.10
2022-12-12T05:25:01.427Z,53.95
2022-12-12T05:26:07.882Z,53.97
2022-12-12T05:27:11.214Z,53.29
2022-12-12T05:28:14.034Z,53.51
2022-12-12T05:29:17.709Z,54.17
2022-12-12T05:30:20.894Z,53.95
2022-12-12T05:31:22.894Z,53.47
2022-12-12T05:32:25.696Z,54.13
2022-12-12T05:33:27.405Z,54.32
2022-12-12T05:34:30.083Z,53.54
2022-12-12T05:35:33.919Z,54.25
2022-12-12T05:36:36.590Z,53.97
2022-12-12T05:37:39.505Z,53.54
2022-12-12T05:38:41.576Z,53.25
2022-12-12T05:39:44.320Z,53.38
2022-12-12T05:40:46.056Z,53.77
2022-12-12T05:41:49.185Z,53.83
2022-12-12T05:42:51.548Z,53.60
2022-12-12T05:43:54.256Z,53.49
2022-12-12T05:44:55.914Z,53.58
2022-12-12T05:45:59.011Z,53.46
2022-12-12T05:47:00.906Z,54.16
2022-12-12T05:48:03.989Z,53.68
2022-12-12T05:49:05.751Z,53.80
2022-12-12T05:50:09.347Z,53.58
2022-12-12T05:51:12.737Z,53.91
2022-12-12T05:52:15.831Z,53.97
2022-12-12T05:53:18.551Z,53.42
2022-12-12T05:54:20.621Z,53.47
2022-12-12T05:55:23.296Z,54.19
2022-12-12T05:56:25.021Z,54.35
2022-12-12T05:57:27.670Z,53.92
2022-12-12T05:58:29.387Z,54.40
2022-12-12T05:59:32.024Z,53.79
2022-12-12T06:00:33.851Z,53.76
2022-12-12T06:01:36.536Z,54.22
2022-12-12T06:02:39.121Z,53.64
2022-12-12T06:03:41.962Z,54.00
2022-12-12T06:04:43.819Z,53.90
2022-12-12T06:05:46.515Z,54.38
2022-12-12T06:06:49.635Z,54.08
2022-12-12T06:07:52.381Z,53.77
2022-12-12T06:08:54.159Z,54.26
2022-12-12T06:09:56.882Z,54.11
2022-12-12T06:10:58.546Z,53.76
2022-12-12T06:12:01.403Z,54.19
2022-12-12T06:13:03.805Z,54.02
2022-12-12T06:14:06.572Z,54.78
2022-12-12T06:15:09.023Z,54.83
2022-12-12T06:16:14.816Z,54.47
2022-12-12T06:17:16.588Z,54.94
2022-12-12T06:18:19.314Z,54.69
2022-12-12T06:19:21.371Z,54.35
2022-12-12T06:20:24.038Z,54.32
2022-12-12T06:21:25.727Z,54.82
2022-12-12T06:22:29.820Z,54.66
2022-12-12T06:23:32.555Z,55.21
2022-12-12T06:24:35.228Z,54.84
2022-12-12T06:25:36.880Z,54.99
2022-12-12T06:26:39.548Z,54.25
2022-12-12T06:27:42.342Z,55.17
2022-12-12T06:28:45.333Z,54.36
2022-12-12T06:29:48.264Z,54.56
2022-12-12T06:30:50.452Z,54.62
2022-12-12T06:31:53.514Z,54.92
2022-12-12T06:32:56.303Z,54.67
2022-12-12T06:33:58.015Z,54.89
2022-12-12T06:35:00.889Z,54.88
2022-12-12T06:36:04.874Z,55.15
2022-12-12T06:37:10.739Z,55.31
2022-12-12T06:38:20.499Z,55.02
2022-12-12T06:39:22.375Z,55.34
2022-12-12T06:40:25.484Z,55.21
2022-12-12T06:41:30.550Z,55.80
2022-12-12T06:42:33.741Z,55.00
2022-12-12T06:43:36.437Z,55.44
2022-12-12T06:44:39.114Z,54.92
2022-12-12T06:45:40.882Z,55.25
2022-12-12T06:46:43.721Z,55.65
2022-12-12T06:47:46.582Z,55.89
2022-12-12T06:48:49.304Z,55.41
2022-12-12T06:49:52.312Z,55.37
2022-12-12T06:50:55.003Z,55.49
2022-12-12T06:51:57.730Z,55.66
2022-12-12T06:53:00.503Z,55.52
2022-12-12T06:54:03.683Z,55.66
2022-12-12T06:55:07.042Z,55.30
2022-12-12T06:56:09.844Z,55.64
2022-12-12T06:57:12.581Z,55.65
2022-12-12T06:58:14.450Z,55.31
2022-12-12T06:59:17.710Z,54.67
2022-12-12T07:00:21.475Z,54.65
2022-12-12T07:01:24.816Z,54.73
2022-12-12T07:02:30.005Z,55.30
2022-12-12T07:03:32.715Z,55.20
2022-12-12T07:04:35.390Z,54.66
2022-12-12T07:05:37.045Z,55.28
2022-12-12T07:06:39.840Z,55.13
2022-12-12T07:07:41.575Z,54.77
2022-12-12T07:08:44.332Z,55.10
2022-12-12T07:09:48.526Z,54.88
2022-12-12T07:10:50.303Z,54.47
2022-12-12T07:11:53.039Z,54.94
2022-12-12T07:12:57.471Z,54.84
2022-12-12T07:14:01.518Z,53.91
2022-12-12T07:15:04.624Z,53.96
2022-12-12T07:16:07.188Z,54.44
2022-12-12T07:17:10.006Z,54.51
2022-12-12T07:18:11.757Z,53.80
2022-12-12T07:19:14.507Z,54.68
2022-12-12T07:20:16.684Z,53.70
2022-12-12T07:21:20.973Z,53.79
2022-12-12T07:22:23.789Z,54.43
2022-12-12T07:23:25.519Z,53.72
2022-12-12T07:24:28.359Z,53.68
2022-12-12T07:25:31.628Z,53.62
2022-12-12T07:26:34.402Z,53.77
2022-12-12T07:27:36.261Z,54.50
2022-12-12T07:28:39.097Z,54.02
2022-12-12T07:29:41.841Z,54.40
2022-12-12T07:30:47.241Z,54.07
2022-12-12T07:31:49.047Z,53.82
2022-12-12T07:32:52.215Z,54.67
2022-12-12T07:33:54.397Z,53.85
2022-12-12T07:34:57.097Z,53.90
2022-12-12T07:35:59.175Z,54.03
2022-12-12T07:37:03.284Z,53.93
2022-12-12T07:38:05.834Z,54.21
2022-12-12T07:39:08.745Z,54.53
2022-12-12T07:40:14.647Z,53.88
2022-12-12T07:41:20.431Z,54.57
2022-12-12T07:42:23.223Z,54.25
2022-12-12T07:43:26.597Z,53.71
2022-12-12T07:44:29.598Z,53.96
2022-12-12T07:45:31.285Z,54.04
2022-12-12T07:46:34.092Z,54.08
2022-12-12T07:47:36.971Z,53.87
2022-12-12T07:48:38.940Z,54.29
2022-12-12T07:49:41.662Z,54.62
2022-12-12T07:50:43.425Z,54.20
2022-12-12T07:51:49.259Z,54.92
2022-12-12T07:52:51.287Z,54.56
2022-12-12T07:53:54.564Z,54.31
2022-12-12T07:54:57.255Z,54.55
2022-12-12T07:55:59.203Z,54.72
2022-12-12T07:57:03.302Z,54.67
2022-12-12T07:58:05.099Z,54.49
2022-12-12T07:59:08.200Z,54.35
2022-12-12T08:00:13.600Z,53.79
2022-12-12T08:01:19.041Z,54.22
2022-12-12T08:02:20.876Z,54.27
2022-12-12T08:03:23.600Z,53.54
2022-12-12T08:04:25.449Z,53.53
2022-12-12T08:05:29.098Z,54.34
2022-12-12T08:06:32.285Z,54.56
2022-12-12T08:07:35.020Z,54.37
2022-12-12T08:08:37.910Z,54.38
2022-12-12T08:09:40.790Z,54.29
2022-12-12T08:10:43.500Z,54.40
2022-12-12T08:11:46.804Z,54.14
2022-12-12T08:12:50.376Z,54.63
2022-12-12T08:13:53.521Z,54.11
2022-12-12T08:14:56.405Z,54.64
2022-12-12T08:15:59.102Z,54.10
2022-12-12T08:17:01.901Z,54.28
2022-12-12T08:18:03.663Z,54.21
2022-12-12T08:19:06.441Z,54.58
2022-12-12T08:20:09.348Z,53.77
2022-12-12T08:21:12.965Z,54.51
2022-12-12T08:22:15.914Z,53.88
2022-12-12T08:23:17.596Z,54.37
2022-12-12T08:24:20.379Z,54.11
2022-12-12T08:25:23.103Z,54.01
2022-12-12T08:26:26.974Z,54.24
2022-12-12T08:27:30.143Z,53.96
2022-12-12T08:28:34.437Z,54.26
2022-12-12T08:29:37.189Z,53.64
2022-12-12T08:30:43.790Z,54.32
2022-12-12T08:31:46.823Z,53.76
2022-12-12T08:32:49.854Z,53.96
2022-12-12T08:33:51.878Z,54.02
2022-12-12T08:34:58.473Z,53.43
2022-12-12T08:36:00.188Z,53.89
2022-12-12T08:37:03.394Z,54.14
2022-12-12T08:38:07.066Z,53.66
2022-12-12T08:39:12.102Z,53.52
2022-12-12T08:40:14.805Z,53.49
2022-12-12T08:41:17.027Z,53.17
2022-12-12T08:42:19.825Z,54.22
2022-12-12T08:43:21.672Z,53.67
2022-12-12T08:44:25.832Z,53.51
2022-12-12T08:45:27.563Z,53.93
2022-12-12T08:46:30.327Z,54.01
2022-12-12T08:47:32.255Z,53.35
2022-12-12T08:48:35.339Z,53.69
2022-12-12T08:49:38.030Z,53.73
2022-12-12T08:50:40.372Z,53.40
2022-12-12T08:51:43.264Z,53.00
2022-12-12T08:52:46.006Z,52.84
2022-12-12T08:53:52.758Z,53.83
2022-12-12T08:54:55.520Z,53.31
2022-12-12T08:55:58.481Z,53.10
2022-12-12T08:57:01.248Z,53.33
2022-12-12T08:58:03.084Z,53.18
2022-12-12T08:59:05.885Z,53.10
2022-12-12T09:00:11.645Z,52.87
2022-12-12T09:01:17.245Z,52.26
2022-12-12T09:02:20.148Z,52.31
2022-12-12T09:03:29.230Z,52.16
2022-12-12T09:04:32.834Z,52.24
2022-12-12T09:05:36.071Z,52.48
2022-12-12T09:06:38.762Z,52.19
2022-12-12T09:07:41.469Z,51.99
2022-12-12T09:08:43.714Z,52.75
2022-12-12T09:09:46.424Z,52.22
2022-12-12T09:10:50.956Z,51.96
2022-12-12T09:11:53.622Z,51.55
2022-12-12T09:12:56.331Z,51.85
2022-12-12T09:13:59.069Z,51.94
2022-12-12T09:15:00.793Z,51.53
2022-12-12T09:16:05.721Z,50.89
2022-12-12T09:17:08.442Z,50.94
2022-12-12T09:18:10.177Z,51.28
2022-12-12T09:19:12.909Z,50.98
2022-12-12T09:20:16.342Z,50.91
2022-12-12T09:21:20.090Z,51.21
2022-12-12T09:22:22.833Z,51.63
2022-12-12T09:23:26.906Z,50.39
2022-12-12T09:24:29.616Z,51.31
2022-12-12T09:25:32.663Z,51.08
2022-12-12T09:26:35.443Z,50.92
2022-12-12T09:27:38.207Z,50.83
2022-12-12T09:28:40.036Z,50.42
2022-12-12T09:29:42.753Z,50.39
2022-12-12T09:30:45.936Z,50.66
2022-12-12T09:31:50.061Z,50.43
2022-12-12T09:32:52.798Z,50.83
2022-12-12T09:33:55.567Z,51.03
2022-12-12T09:34:58.265Z,51.17
2022-12-12T09:36:01.848Z,51.48
2022-12-12T09:37:05.633Z,51.25
2022-12-12T09:38:13.946Z,51.60
2022-12-12T09:39:17.446Z,50.45
2022-12-12T09:40:22.943Z,51.61
2022-12-12T09:41:27.962Z,51.36
2022-12-12T09:42:33.092Z,51.92
2022-12-12T09:43:38.881Z,51.56
2022-12-12T09:44:41.543Z,52.14
2022-12-12T09:45:43.774Z,51.91
2022-12-12T09:46:49.035Z,51.64
2022-12-12T09:47:55.918Z,51.29
2022-12-12T09:49:09.151Z,50.99
2022-12-12T09:50:18.701Z,51.20
2022-12-12T09:51:24.720Z,51.80
2022-12-12T09:52:32.144Z,51.23
2022-12-12T09:53:35.020Z,51.08
2022-12-12T09:54:37.789Z,51.60
2022-12-12T09:55:43.302Z,51.02
2022-12-12T09:57:06.281Z,52.00
2022-12-12T09:58:18.089Z,51.18
2022-12-12T09:59:26.210Z,51.87
2022-12-12T10:00:31.075Z,50.90
2022-12-12T10:01:35.995Z,51.81
2022-12-12T10:02:45.251Z,51.88
2022-12-12T10:03:57.795Z,51.06
2022-12-12T10:05:02.819Z,51.45
2022-12-12T10:06:35.921Z,51.20
2022-12-12T10:07:36.442Z,50.61
2022-12-12T10:08:44.267Z,51.55
2022-12-12T10:09:57.287Z,51.25
2022-12-12T10:11:04.218Z,50.96
2022-12-12T10:12:10.545Z,50.51
2022-12-12T10:13:17.830Z,50.92
2022-12-12T10:14:24.791Z,51.05
2022-12-12T10:15:31.778Z,50.39
2022-12-12T10:16:34.865Z,50.69
2022-12-12T10:17:40.822Z,50.08
2022-12-12T10:18:47.876Z,49.75
2022-12-12T10:19:52.516Z,49.65
2022-12-12T10:20:57.235Z,49.39
2022-12-12T10:22:05.483Z,49.48
2022-12-12T10:23:16.009Z,49.66
2022-12-12T10:24:27.134Z,49.58
2022-12-12T10:25:39.078Z,49.01
2022-12-12T10:26:42.848Z,50.16
2022-12-12T10:27:45.617Z,49.45
2022-12-12T10:28:50.789Z,49.42
2022-12-12T10:29:54.021Z,50.01
2022-12-12T10:31:06.974Z,49.44
2022-12-12T10:32:17.422Z,49.23
2022-12-12T10:33:28.783Z,49.74
2022-12-12T10:34:43.376Z,50.00
2022-12-12T10:35:53.434Z,49.81
2022-12-12T10:37:10.651Z,49.96
2022-12-12T10:38:24.787Z,49.71
2022-12-12T10:39:31.834Z,49.86
2022-12-12T10:40:44.835Z,49.08
2022-12-12T10:41:51.449Z,49.44
2022-12-12T10:42:57.983Z,48.89
2022-12-12T10:44:05.914Z,49.13
2022-12-12T10:45:23.419Z,48.79
2022-12-12T10:46:28.934Z,48.71
2022-12-12T10:47:31.976Z,48.86
2022-12-12T10:48:34.102Z,49.26
2022-12-12T10:49:36.820Z,49.41
2022-12-12T10:50:44.053Z,49.12
2022-12-12T10:51:49.768Z,49.71
2022-12-12T10:52:51.446Z,49.82
2022-12-12T10:53:54.199Z,49.37
2022-12-12T10:54:59.836Z,49.58
2022-12-12T10:56:06.502Z,49.85
2022-12-12T10:57:19.543Z,49.25
2022-12-12T10:58:26.434Z,49.82
2022-12-12T10:59:29.215Z,49.17
2022-12-12T11:00:34.135Z,49.59
2022-12-12T11:02:09.093Z,49.47
2022-12-12T11:03:12.766Z,49.52
2022-12-12T11:04:16.548Z,48.94
2022-12-12T11:05:21.371Z,48.88
2022-12-12T11:06:30.873Z,48.23
2022-12-12T11:07:36.904Z,48.55
2022-12-12T11:08:39.878Z,47.86
2022-12-12T11:09:47.112Z,47.90
2022-12-12T11:11:02.435Z,48.15
2022-12-12T11:12:13.926Z,47.86
2022-12-12T11:13:17.442Z,47.79
2022-12-12T11:14:24.542Z,48.34
2022-12-12T11:15:32.203Z,48.11
2022-12-12T11:16:42.259Z,47.76
2022-12-12T11:17:44.753Z,48.08
2022-12-12T11:19:06.139Z,47.94
2022-12-12T11:20:14.713Z,47.53
2022-12-12T11:21:17.423Z,47.27
2022-12-12T11:22:20.762Z,47.05
2022-12-12T11:23:26.882Z,47.43
2022-12-12T11:24:32.226Z,46.85
2022-12-12T11:25:35.340Z,47.28
2022-12-12T11:26:44.638Z,46.78
2022-12-12T11:27:47.460Z,46.72
2022-12-12T11:28:55.161Z,46.27
2022-12-12T11:29:59.694Z,46.48
2022-12-12T11:31:04.309Z,46.48
2022-12-12T11:32:13.259Z,46.70
2022-12-12T11:33:19.094Z,46.01
2022-12-12T11:34:21.323Z,45.67
2022-12-12T11:35:27.012Z,46.12
2022-12-12T11:36:32.976Z,46.26
2022-12-12T11:37:38.334Z,45.77
2022-12-12T11:38:47.912Z,46.23
2022-12-12T11:39:51.909Z,45.96
2022-12-12T11:41:00.106Z,46.09
2022-12-12T11:42:05.037Z,46.20
2022-12-12T11:43:20.334Z,46.17
2022-12-12T11:44:25.654Z,45.75
2022-12-12T11:45:28.673Z,45.79
2022-12-12T11:46:31.312Z,45.69
2022-12-12T11:47:40.987Z,45.48
2022-12-12T11:48:46.155Z,45.03
2022-12-12T11:49:50.947Z,44.73
2022-12-12T11:50:53.677Z,44.73
2022-12-12T11:51:56.888Z,44.45
2022-12-12T11:53:04.310Z,44.73
2022-12-12T11:54:16.562Z,45.08
2022-12-12T11:55:33.559Z,44.73
2022-12-12T11:56:49.097Z,43.69
2022-12-12T11:58:04.002Z,43.43
2022-12-12T11:59:29.951Z,44.32
2022-12-12T12:00:38.133Z,43.91
2022-12-12T12:01:46.078Z,43.38
2022-12-12T12:03:06.232Z,43.19
2022-12-12T12:04:26.762Z,43.73
2022-12-12T12:05:36.274Z,42.71
2022-12-12T12:06:54.480Z,43.07
2022-12-12T12:08:08.668Z,43.30
2022-12-12T12:09:27.274Z,43.15
2022-12-12T12:10:41.581Z,43.10
2022-12-12T12:11:50.602Z,42.21
2022-12-12T12:13:01.501Z,41.73
2022-12-12T12:14:16.980Z,41.33
2022-12-12T12:15:34.950Z,41.85
2022-12-12T12:16:46.857Z,40.41
2022-12-12T12:17:59.648Z,41.36
2022-12-12T12:19:08.957Z,40.90
2022-12-12T12:20:21.052Z,40.96
2022-12-12T12:21:44.248Z,41.33
2022-12-12T12:22:53.826Z,40.60
2022-12-12T12:24:22.328Z,40.82
2022-12-12T12:25:31.045Z,40.67
2022-12-12T12:26:36.678Z,39.97
2022-12-12T12:27:43.604Z,40.23
2022-12-12T12:29:08.220Z,40.03
2022-12-12T12:30:18.892Z,40.51
2022-12-12T12:31:27.948Z,39.82
2022-12-12T12:32:35.718Z,39.38
2022-12-12T12:33:51.162Z,39.59
2022-12-12T12:35:05.516Z,39.90
2022-12-12T12:36:20.931Z,40.18
2022-12-12T12:37:35.085Z,39.67
2022-12-12T12:38:56.529Z,39.54
2022-12-12T12:40:14.029Z,39.23
2022-12-12T12:41:26.272Z,39.38
2022-12-12T12:42:49.426Z,40.11
2022-12-12T12:44:03.532Z,39.08
2022-12-12T12:45:09.830Z,39.91
2022-12-12T12:46:16.340Z,39.42
2022-12-12T12:47:28.652Z,40.23
2022-12-12T12:48:34.944Z,39.47
2022-12-12T12:49:42.172Z,40.14
2022-12-12T12:50:47.985Z,40.08
2022-12-12T12:51:55.028Z,39.81
2022-12-12T12:53:01.976Z,40.28
2022-12-12T12:54:05.747Z,41.00
2022-12-12T12:55:16.419Z,40.23
2022-12-12T12:56:26.603Z,40.87
2022-12-12T12:57:31.718Z,40.46
2022-12-12T12:58:38.986Z,41.25
2022-12-12T12:59:44.589Z,41.01
2022-12-12T13:00:48.939Z,41.19
2022-12-12T13:01:52.855Z,41.67
2022-12-12T13:03:00.203Z,41.43
2022-12-12T13:04:06.441Z,41.76
2022-12-12T13:05:14.919Z,41.96
2022-12-12T13:06:22.231Z,41.73
2022-12-12T13:07:30.387Z,42.22
2022-12-12T13:08:41.276Z,42.44
2022-12-12T13:09:49.338Z,43.20
2022-12-12T13:10:55.696Z,43.27
2022-12-12T13:12:02.285Z,43.53
2022-12-12T13:13:08.075Z,43.50
2022-12-12T13:14:14.895Z,43.63
2022-12-12T13:15:21.236Z,43.41
2022-12-12T13:16:26.192Z,43.77
2022-12-12T13:17:45.124Z,43.68
2022-12-12T13:18:50.951Z,43.58
2022-12-12T13:19:54.556Z,43.71
2022-12-12T13:21:01.886Z,44.07
2022-12-12T13:22:08.562Z,44.17
2022-12-12T13:23:39.096Z,44.23
2022-12-12T13:24:47.373Z,44.31
2022-12-12T13:25:57.750Z,44.39
2022-12-12T13:27:04.715Z,44.72
2022-12-12T13:28:09.935Z,44.23
2022-12-12T13:29:26.547Z,44.78
2022-12-12T13:30:35.753Z,44.18
2022-12-12T13:31:53.837Z,44.29
2022-12-12T13:33:09.681Z,44.35
2022-12-12T13:34:14.789Z,44.28
2022-12-12T13:35:18.384Z,44.16
2022-12-12T13:36:29.362Z,44.23
2022-12-12T13:37:36.514Z,44.32
2022-12-12T13:38:39.895Z,44.25
2022-12-12T13:39:42.657Z,44.34
2022-12-12T13:40:45.445Z,44.14
2022-12-12T13:41:57.888Z,44.33
2022-12-12T13:43:09.111Z,43.82
2022-12-12T13:44:33.144Z,43.92
2022-12-12T13:45:42.830Z,44.07
2022-12-12T13:46:45.585Z,44.47
2022-12-12T13:48:02.690Z,44.11
2022-12-12T13:49:24.366Z,43.96
2022-12-12T13:50:27.468Z,43.98
2022-12-12T13:51:34.977Z,43.86
2022-12-12T13:52:41.071Z,43.86
2022-12-12T13:53:42.796Z,43.80
2022-12-12T13:54:47.024Z,44.41
2022-12-12T13:55:49.980Z,44.10
2022-12-12T13:57:12.515Z,44.66
2022-12-12T13:58:21.111Z,44.69
2022-12-12T13:59:29.709Z,44.27
2022-12-12T14:00:33.443Z,44.62
2022-12-12T14:01:40.517Z,44.64
2022-12-12T14:02:44.839Z,44.70
2022-12-12T14:03:48.022Z,44.40
2022-12-12T14:05:07.121Z,44.58
2022-12-12T14:06:11.974Z,44.46
2022-12-12T14:07:16.570Z,45.06
2022-12-12T14:08:28.762Z,44.54
2022-12-12T14:09:47.166Z,45.10
2022-12-12T14:10:57.901Z,44.83